Time;durP1;ratioP1;P1;durP2;ratioP2;P2;SDS_P1;SDS_P2;PMS_P1;PMS_P2;Temp;Humidity;BMP_temperature;BMP_pressure;BME280_temperature;BME280_humidity;BME280_pressure;Samples;Min_cycle;Max_cycle;Signal;HPM_P1;HPM_P2
2023/10/15 00:00:57;;;;;;;21.85;20.58;;;6.90;95.60;;;;;;4887020;29;20041;-74
2023/10/15 00:03:23;;;;;;;17.40;16.00;;;6.90;95.50;;;;;;4887926;29;20049;-75
2023/10/15 00:05:49;;;;;;;17.17;15.90;;;7.00;95.40;;;;;;4891433;29;20048;-76
2023/10/15 00:08:15;;;;;;;16.35;15.30;;;7.00;95.00;;;;;;4878269;29;20096;-76
2023/10/15 00:10:41;;;;;;;23.80;22.30;;;7.10;95.00;;;;;;4894365;29;20057;-75
2023/10/15 00:13:07;;;;;;;18.38;17.35;;;7.10;95.30;;;;;;4894007;29;20127;-75
2023/10/15 00:15:33;;;;;;;24.70;23.30;;;7.20;95.50;;;;;;4897977;29;20575;-75
2023/10/15 00:18:01;;;;;;;30.70;28.90;;;7.20;95.70;;;;;;4878258;29;20044;-75
2023/10/15 00:20:31;;;;;;;25.95;24.35;;;7.20;96.00;;;;;;4896111;29;20044;-75
2023/10/15 00:23:00;;;;;;;22.90;21.45;;;7.20;96.60;;;;;;4879213;29;20203;-75
2023/10/15 00:25:47;;;;;;;24.58;22.98;;;7.20;96.30;;;;;;4878193;29;20048;-75
2023/10/15 00:28:15;;;;;;;26.95;25.27;;;7.30;95.80;;;;;;4878397;29;20045;-76
2023/10/15 00:30:42;;;;;;;21.15;19.55;;;7.30;95.90;;;;;;4878315;29;20052;-76
2023/10/15 00:33:11;;;;;;;19.58;17.98;;;7.30;94.40;;;;;;4895967;29;20052;-76
2023/10/15 00:35:37;;;;;;;20.70;19.17;;;7.30;94.80;;;;;;4894944;29;20438;-76
2023/10/15 00:38:16;;;;;;;22.15;20.55;;;7.30;95.50;;;;;;4879128;29;20048;-76
2023/10/15 00:40:45;;;;;;;21.30;19.85;;;7.30;95.90;;;;;;4897762;29;20055;-75
2023/10/15 00:43:13;;;;;;;59.88;56.58;;;7.20;96.30;;;;;;4878037;29;20052;-75
2023/10/15 00:45:48;;;;;;;18.00;16.83;;;7.30;95.10;;;;;;4891460;29;20617;-76
2023/10/15 00:48:22;;;;;;;14.70;13.73;;;7.30;92.50;;;;;;4912279;29;20845;-75
2023/10/15 00:50:49;;;;;;;20.65;19.08;;;7.40;93.10;;;;;;4882102;29;20047;-75
2023/10/15 00:53:23;;;;;;;16.77;15.52;;;7.40;93.20;;;;;;4880284;29;20152;-75
2023/10/15 00:55:53;;;;;;;18.55;17.00;;;7.30;93.80;;;;;;4892159;29;20048;-75
2023/10/15 00:58:31;;;;;;;18.98;17.85;;;7.20;94.00;;;;;;4877582;29;20052;-75
2023/10/15 01:01:01;;;;;;;22.77;21.25;;;7.20;94.00;;;;;;4909998;29;20074;-75
2023/10/15 01:03:32;;;;;;;15.38;14.18;;;7.10;94.00;;;;;;4883926;29;20535;-75
2023/10/15 01:06:05;;;;;;;16.02;14.52;;;7.10;94.20;;;;;;4902224;29;20057;-75
2023/10/15 01:08:39;;;;;;;13.95;12.82;;;7.00;94.20;;;;;;4899529;29;20045;-75
2023/10/15 01:11:19;;;;;;;14.15;13.05;;;7.00;93.50;;;;;;4878269;29;20090;-75
2023/10/15 01:13:45;;;;;;;17.85;16.58;;;7.00;93.20;;;;;;4876459;29;20044;-73
2023/10/15 01:16:17;;;;;;;14.40;13.07;;;7.10;91.30;;;;;;4892857;29;20045;-72
2023/10/15 01:18:55;;;;;;;15.43;13.98;;;7.10;90.20;;;;;;4887666;29;20059;-72
2023/10/15 01:21:22;;;;;;;12.40;11.60;;;7.10;90.20;;;;;;4877021;29;20033;-72
2023/10/15 01:24:04;;;;;;;11.60;10.13;;;7.00;89.30;;;;;;4891294;29;20032;-72
2023/10/15 01:26:34;;;;;;;14.75;13.70;;;7.00;89.00;;;;;;4891420;29;20048;-72
2023/10/15 01:29:01;;;;;;;12.52;11.48;;;7.00;89.50;;;;;;4892395;29;20041;-72
2023/10/15 01:31:27;;;;;;;20.63;19.45;;;7.10;89.60;;;;;;4892154;29;20120;-72
2023/10/15 01:33:53;;;;;;;12.60;11.60;;;7.00;88.90;;;;;;4881186;29;20173;-72
2023/10/15 01:36:26;;;;;;;30.27;28.50;;;7.10;87.30;;;;;;4876899;29;20527;-72
2023/10/15 01:38:56;;;;;;;12.88;11.98;;;7.10;86.80;;;;;;4916168;29;20036;-72
2023/10/15 01:41:25;;;;;;;11.82;11.18;;;7.10;86.80;;;;;;4877849;29;20032;-72
2023/10/15 01:43:53;;;;;;;18.85;17.83;;;7.10;86.80;;;;;;4897134;29;20048;-72
2023/10/15 01:49:21;;;;;;;69.30;65.20;;;7.10;85.00;;;;;;4864427;29;20040;-72
2023/10/15 01:51:53;;;;;;;17.88;16.92;;;7.20;84.40;;;;;;4891744;29;20073;-72
2023/10/15 01:54:21;;;;;;;11.90;10.35;;;7.30;83.50;;;;;;4892039;29;20042;-72
2023/10/15 01:56:46;;;;;;;13.27;12.57;;;7.30;83.10;;;;;;4873588;29;20047;-72
2023/10/15 01:59:12;;;;;;;15.00;14.00;;;7.30;84.30;;;;;;4890462;29;20052;-72
2023/10/15 02:01:41;;;;;;;11.63;10.83;;;7.20;84.70;;;;;;4891586;29;20093;-72
2023/10/15 02:04:29;;;;;;;8.43;7.15;;;7.10;85.20;;;;;;4890423;29;20040;-72
2023/10/15 02:06:53;;;;;;;15.32;14.52;;;7.10;84.50;;;;;;4893376;29;20049;-72
2023/10/15 02:09:22;;;;;;;19.85;18.42;;;7.00;83.80;;;;;;4906997;29;20048;-72
2023/10/15 02:11:59;;;;;;;8.57;7.88;;;7.00;83.30;;;;;;4891127;29;20059;-72
2023/10/15 02:14:27;;;;;;;13.63;12.70;;;6.90;84.80;;;;;;4887503;29;20404;-72
2023/10/15 02:16:54;;;;;;;8.63;7.97;;;6.80;84.20;;;;;;4891916;29;20056;-72
2023/10/15 02:19:55;;;;;;;13.73;12.68;;;6.80;84.70;;;;;;4884818;29;20040;-72
2023/10/15 02:22:12;;;;;;;25.42;23.77;;;6.70;85.40;;;;;;4897057;29;20157;-72
2023/10/15 02:24:49;;;;;;;13.80;12.80;;;6.60;85.90;;;;;;4890796;29;20048;-75
2023/10/15 02:27:30;;;;;;;10.60;9.68;;;6.50;86.30;;;;;;4872814;29;20040;-75
2023/10/15 02:29:55;;;;;;;10.65;10.05;;;6.50;86.70;;;;;;4894754;29;20051;-75
2023/10/15 02:32:28;;;;;;;17.70;16.67;;;6.40;87.60;;;;;;4890507;29;20408;-75
2023/10/15 02:34:54;;;;;;;12.35;11.60;;;6.40;88.20;;;;;;4888433;29;20048;-75
2023/10/15 02:37:27;;;;;;;12.38;11.57;;;6.30;88.70;;;;;;4894960;29;20089;-75
2023/10/15 02:39:59;;;;;;;11.32;10.68;;;6.30;88.90;;;;;;4891690;29;20052;-75
2023/10/15 02:42:33;;;;;;;14.13;13.43;;;6.20;89.50;;;;;;4886868;29;20096;-75
2023/10/15 02:45:01;;;;;;;13.50;12.60;;;6.10;90.00;;;;;;4893454;29;20168;-75
2023/10/15 02:50:33;;;;;;;12.75;12.00;;;6.00;90.90;;;;;;4888538;29;20489;-76
2023/10/15 02:53:04;;;;;;;9.10;8.48;;;5.90;91.10;;;;;;4894203;29;20102;-75
2023/10/15 02:55:36;;;;;;;10.43;9.73;;;5.80;91.40;;;;;;4890766;29;20120;-75
2023/10/15 02:58:02;;;;;;;10.40;9.55;;;5.80;91.60;;;;;;4892255;29;20040;-77
2023/10/15 03:00:28;;;;;;;13.60;12.95;;;5.80;92.10;;;;;;4875826;29;20136;-76
2023/10/15 03:03:06;;;;;;;13.33;12.53;;;5.70;92.30;;;;;;4887333;29;20127;-76
2023/10/15 03:05:38;;;;;;;11.60;10.90;;;5.60;92.50;;;;;;4874541;29;20048;-76
2023/10/15 03:08:04;;;;;;;13.20;12.50;;;5.50;92.80;;;;;;4882209;29;20111;-76
2023/10/15 03:10:44;;;;;;;10.90;10.07;;;5.50;93.30;;;;;;4890530;29;20040;-76
2023/10/15 03:13:14;;;;;;;8.63;8.13;;;5.40;93.20;;;;;;4882582;29;20629;-76
2023/10/15 03:15:48;;;;;;;8.40;7.68;;;5.40;93.50;;;;;;4889160;29;20045;-76
2023/10/15 03:18:24;;;;;;;11.50;10.52;;;5.30;93.70;;;;;;4892499;29;20586;-76
2023/10/15 03:21:09;;;;;;;10.85;10.35;;;5.30;93.90;;;;;;4903783;29;20055;-76
2023/10/15 03:23:35;;;;;;;11.80;11.15;;;5.30;94.30;;;;;;4889652;29;20044;-76
2023/10/15 03:26:02;;;;;;;14.35;13.32;;;5.20;94.60;;;;;;4892558;29;20388;-76
2023/10/15 03:28:28;;;;;;;11.23;10.43;;;5.20;94.90;;;;;;4900944;29;20036;-76
2023/10/15 03:30:56;;;;;;;14.75;13.75;;;5.20;94.90;;;;;;4884737;29;20595;-76
2023/10/15 03:33:30;;;;;;;12.93;11.90;;;5.20;94.90;;;;;;4890399;29;20548;-74
2023/10/15 03:35:57;;;;;;;35.20;33.70;;;5.30;95.20;;;;;;4890665;29;20044;-74
2023/10/15 03:38:32;;;;;;;28.02;26.63;;;5.30;95.40;;;;;;4889600;29;20064;-74
2023/10/15 03:41:21;;;;;;;31.45;29.70;;;5.40;95.60;;;;;;4895701;29;20041;-74
2023/10/15 03:43:48;;;;;;;29.92;28.23;;;5.40;95.90;;;;;;4893769;29;20803;-74
2023/10/15 03:46:19;;;;;;;32.47;30.92;;;5.50;96.20;;;;;;4874930;29;20103;-74
2023/10/15 03:48:49;;;;;;;27.63;26.42;;;5.60;96.60;;;;;;4886739;29;20560;-74
2023/10/15 03:51:24;;;;;;;35.85;34.38;;;5.60;96.50;;;;;;4894803;29;20127;-74
2023/10/15 03:53:50;;;;;;;35.15;33.35;;;5.70;96.70;;;;;;4893800;29;20539;-74
2023/10/15 03:56:49;;;;;;;29.37;27.77;;;5.70;97.20;;;;;;4878257;29;20045;-74
2023/10/15 03:59:08;;;;;;;41.45;39.55;;;5.80;97.60;;;;;;4891151;29;20045;-74
2023/10/15 04:01:37;;;;;;;34.07;32.53;;;5.80;97.10;;;;;;4893627;29;20548;-74
2023/10/15 04:04:03;;;;;;;41.03;39.15;;;5.90;97.10;;;;;;4876851;29;20293;-74
2023/10/15 04:06:29;;;;;;;36.53;34.73;;;6.00;97.30;;;;;;4894023;29;20593;-75
2023/10/15 04:09:08;;;;;;;60.13;57.17;;;6.10;96.50;;;;;;4903688;29;20288;-74
2023/10/15 04:11:44;;;;;;;34.40;32.33;;;6.10;95.40;;;;;;4893906;29;20368;-74
2023/10/15 04:14:18;;;;;;;52.42;49.92;;;6.30;94.90;;;;;;4879726;29;20064;-74
2023/10/15 04:16:44;;;;;;;38.33;36.60;;;6.30;94.80;;;;;;4878138;29;20044;-74
2023/10/15 04:19:10;;;;;;;32.13;30.13;;;6.30;95.10;;;;;;4898570;29;20100;-74
2023/10/15 04:21:39;;;;;;;31.40;29.73;;;6.30;95.70;;;;;;4893574;29;20049;-74
2023/10/15 04:24:06;;;;;;;44.90;41.80;;;6.30;96.10;;;;;;4885632;29;20058;-75
2023/10/15 04:26:35;;;;;;;86.55;81.95;;;6.30;96.10;;;;;;4901871;29;20040;-75
2023/10/15 04:29:15;;;;;;;63.08;59.80;;;6.20;96.20;;;;;;4898454;29;20113;-74
2023/10/15 04:31:46;;;;;;;35.05;33.38;;;6.10;95.70;;;;;;4889524;29;20084;-74
2023/10/15 04:34:18;;;;;;;115.57;109.10;;;5.90;95.70;;;;;;4895323;29;20066;-74
2023/10/15 04:36:45;;;;;;;57.17;54.35;;;5.80;95.80;;;;;;4893778;29;20107;-74
2023/10/15 04:39:12;;;;;;;81.45;76.40;;;5.70;96.50;;;;;;4896028;29;20052;-75
2023/10/15 04:41:39;;;;;;;57.70;55.10;;;5.60;96.90;;;;;;4880844;29;20234;-74
2023/10/15 04:44:11;;;;;;;27.30;25.92;;;5.60;96.90;;;;;;4893301;29;20049;-74
2023/10/15 04:46:41;;;;;;;47.28;45.10;;;5.70;96.80;;;;;;4889572;29;20120;-74
2023/10/15 04:49:07;;;;;;;43.78;41.83;;;5.70;96.80;;;;;;4910243;29;20048;-74
2023/10/15 04:51:42;;;;;;;57.50;54.70;;;5.70;96.50;;;;;;4892551;29;20127;-74
2023/10/15 04:54:14;;;;;;;35.45;33.72;;;5.70;96.60;;;;;;4877699;29;20063;-74
2023/10/15 04:56:40;;;;;;;47.40;45.42;;;5.70;96.50;;;;;;4892469;29;20076;-74
2023/10/15 04:59:06;;;;;;;33.53;32.00;;;5.70;96.80;;;;;;4896110;29;20497;-74
2023/10/15 05:01:34;;;;;;;33.77;32.23;;;5.80;97.00;;;;;;4895314;29;20096;-74
2023/10/15 05:04:01;;;;;;;39.78;38.00;;;5.80;97.20;;;;;;4892474;29;20067;-75
2023/10/15 05:06:27;;;;;;;32.83;31.20;;;5.80;97.20;;;;;;4876175;29;20156;-73
2023/10/15 05:08:53;;;;;;;37.55;35.95;;;5.80;97.30;;;;;;4877560;29;20572;-74
2023/10/15 05:11:21;;;;;;;34.28;32.88;;;5.80;97.50;;;;;;4892643;29;20051;-74
2023/10/15 05:13:50;;;;;;;48.28;46.22;;;5.80;97.50;;;;;;4892363;29;20452;-74
2023/10/15 05:16:16;;;;;;;123.60;116.63;;;5.90;97.30;;;;;;4894150;29;20049;-74
2023/10/15 05:18:43;;;;;;;164.97;154.67;;;5.90;97.10;;;;;;4894970;29;20063;-74
2023/10/15 05:21:09;;;;;;;52.53;49.97;;;5.90;96.70;;;;;;4901857;29;20047;-74
2023/10/15 05:23:37;;;;;;;49.10;46.40;;;5.90;96.90;;;;;;4884950;29;20055;-74
2023/10/15 05:26:03;;;;;;;50.72;48.30;;;5.90;97.50;;;;;;4898822;29;20040;-74
2023/10/15 05:28:29;;;;;;;30.07;28.37;;;5.80;97.90;;;;;;4891988;29;20045;-74
2023/10/15 05:30:57;;;;;;;42.38;40.45;;;5.80;98.50;;;;;;4898265;29;20044;-74
2023/10/15 05:33:24;;;;;;;34.30;32.53;;;5.70;98.60;;;;;;4875772;29;20047;-74
2023/10/15 05:35:49;;;;;;;36.60;34.85;;;5.70;98.80;;;;;;4876768;29;20041;-74
2023/10/15 05:38:19;;;;;;;29.93;28.40;;;5.70;99.00;;;;;;4875526;29;20051;-73
2023/10/15 05:40:45;;;;;;;37.03;35.35;;;5.60;99.30;;;;;;4900443;29;20045;-75
2023/10/15 05:43:11;;;;;;;41.70;39.73;;;5.60;99.90;;;;;;4881684;29;20051;-74
2023/10/15 05:45:37;;;;;;;38.10;36.10;;;5.60;99.90;;;;;;4893250;29;20052;-74
2023/10/15 05:48:03;;;;;;;43.35;41.33;;;5.60;99.90;;;;;;4878020;29;20957;-74
2023/10/15 05:50:29;;;;;;;35.03;33.33;;;5.50;99.90;;;;;;4884471;29;20060;-74
2023/10/15 05:52:55;;;;;;;67.75;64.30;;;5.50;99.90;;;;;;4891457;29;20071;-74
2023/10/15 05:55:20;;;;;;;53.73;51.07;;;5.50;99.90;;;;;;4897444;29;20064;-73
2023/10/15 05:57:47;;;;;;;56.23;53.50;;;5.50;99.90;;;;;;4894392;29;20051;-73
2023/10/15 06:00:19;;;;;;;51.60;49.05;;;5.50;99.90;;;;;;4891930;29;20051;-73
2023/10/15 06:02:46;;;;;;;36.85;34.95;;;5.50;99.90;;;;;;4892810;29;20045;-73
2023/10/15 06:05:13;;;;;;;41.22;38.85;;;5.60;99.90;;;;;;4890956;29;20390;-73
2023/10/15 06:07:40;;;;;;;43.25;41.33;;;5.60;99.90;;;;;;4891421;29;20096;-74
2023/10/15 06:10:08;;;;;;;38.70;36.65;;;5.60;99.90;;;;;;4891670;29;20056;-75
2023/10/15 06:12:34;;;;;;;32.65;31.00;;;5.60;99.90;;;;;;4894458;29;20078;-74
2023/10/15 06:15:04;;;;;;;43.35;41.10;;;5.70;99.90;;;;;;4884377;29;20075;-72
2023/10/15 06:17:30;;;;;;;35.47;33.42;;;5.70;99.90;;;;;;4891359;29;20744;-72
2023/10/15 06:19:56;;;;;;;33.08;31.42;;;5.80;99.90;;;;;;4875507;29;20095;-72
2023/10/15 06:22:22;;;;;;;47.20;44.97;;;5.80;99.90;;;;;;4890154;29;20052;-71
2023/10/15 06:24:48;;;;;;;36.37;34.70;;;5.90;99.90;;;;;;4875670;29;20041;-71
2023/10/15 06:27:14;;;;;;;48.37;46.27;;;6.00;99.90;;;;;;4875212;29;20048;-72
2023/10/15 06:29:39;;;;;;;36.28;34.58;;;6.00;99.90;;;;;;4875577;29;20044;-71
2023/10/15 06:32:05;;;;;;;37.13;35.13;;;6.10;99.90;;;;;;4876802;29;20044;-71
2023/10/15 06:34:32;;;;;;;42.03;39.95;;;6.10;99.90;;;;;;4901978;29;20039;-71
2023/10/15 06:36:58;;;;;;;39.08;37.10;;;6.10;99.90;;;;;;4890582;29;20048;-72
2023/10/15 06:39:24;;;;;;;53.83;50.88;;;6.20;99.50;;;;;;4875456;29;20044;-72
2023/10/15 06:41:49;;;;;;;107.60;101.57;;;6.30;99.90;;;;;;4895940;29;20040;-72
2023/10/15 06:44:16;;;;;;;173.30;163.20;;;6.50;99.90;;;;;;4878900;29;20465;-72
2023/10/15 06:46:43;;;;;;;202.43;188.60;;;6.60;99.70;;;;;;4881937;29;20064;-71
2023/10/15 06:49:09;;;;;;;41.30;38.60;;;6.70;99.30;;;;;;4883076;29;20055;-71
2023/10/15 06:51:35;;;;;;;58.50;55.22;;;6.70;98.70;;;;;;4878049;29;20056;-71
2023/10/15 06:54:01;;;;;;;67.37;64.03;;;6.70;98.90;;;;;;4872289;29;20047;-71
2023/10/15 06:56:27;;;;;;;50.23;46.93;;;6.70;99.00;;;;;;4879187;29;20048;-71
2023/10/15 06:58:53;;;;;;;56.22;53.25;;;6.70;99.10;;;;;;4880994;29;20048;-71
2023/10/15 07:01:19;;;;;;;63.92;60.40;;;6.70;98.80;;;;;;4889753;29;20146;-71
2023/10/15 07:03:44;;;;;;;102.60;96.27;;;6.70;99.20;;;;;;4886675;29;20511;-71
2023/10/15 07:06:11;;;;;;;108.83;102.63;;;6.70;99.30;;;;;;4876712;29;20047;-71
2023/10/15 07:08:37;;;;;;;52.85;49.95;;;6.80;99.20;;;;;;4886523;29;20079;-71
2023/10/15 07:11:05;;;;;;;74.07;70.43;;;6.80;99.50;;;;;;4881736;29;20040;-71
2023/10/15 07:13:31;;;;;;;71.93;68.20;;;6.90;99.90;;;;;;4891347;29;20045;-72
2023/10/15 07:15:57;;;;;;;44.45;41.75;;;6.90;99.90;;;;;;4876358;29;20029;-72
2023/10/15 07:18:23;;;;;;;47.20;44.20;;;6.90;99.90;;;;;;4872498;29;20044;-72
2023/10/15 07:20:48;;;;;;;45.33;43.23;;;6.90;99.90;;;;;;4871383;29;20052;-72
2023/10/15 07:23:21;;;;;;;49.20;46.70;;;6.90;99.90;;;;;;4887980;29;20040;-72
2023/10/15 07:25:46;;;;;;;38.88;36.88;;;7.00;99.90;;;;;;4884693;29;20065;-74
2023/10/15 07:28:12;;;;;;;54.63;51.83;;;7.00;99.90;;;;;;4886970;29;20044;-74
2023/10/15 07:30:38;;;;;;;44.87;42.77;;;7.00;99.90;;;;;;4872743;29;20103;-74
2023/10/15 07:33:04;;;;;;;51.97;49.77;;;7.10;99.90;;;;;;4888899;29;20400;-74
2023/10/15 07:35:30;;;;;;;40.43;38.33;;;7.10;99.90;;;;;;4889355;29;20037;-74
2023/10/15 07:37:57;;;;;;;40.55;38.72;;;7.20;99.90;;;;;;4890855;29;20572;-74
2023/10/15 07:40:26;;;;;;;39.20;37.20;;;7.20;99.20;;;;;;4876457;29;20051;-74
2023/10/15 07:42:54;;;;;;;41.90;40.00;;;7.30;99.10;;;;;;4892414;29;20092;-74
2023/10/15 07:45:26;;;;;;;45.58;43.35;;;7.30;99.70;;;;;;4893841;29;20412;-74
2023/10/15 07:47:53;;;;;;;45.75;43.45;;;7.40;99.40;;;;;;4883742;29;20080;-74
2023/10/15 07:50:23;;;;;;;68.60;65.07;;;7.60;99.50;;;;;;4873553;29;20115;-74
2023/10/15 07:52:49;;;;;;;49.75;47.30;;;7.80;98.70;;;;;;4875728;29;20501;-73
2023/10/15 07:55:16;;;;;;;41.88;39.15;;;8.00;98.40;;;;;;4875491;29;20096;-74
2023/10/15 07:57:41;;;;;;;49.42;46.65;;;8.10;96.90;;;;;;4890014;29;20529;-74
2023/10/15 08:00:14;;;;;;;41.27;38.73;;;8.30;95.40;;;;;;4883415;29;20051;-74
2023/10/15 08:02:48;;;;;;;42.92;40.35;;;8.40;96.10;;;;;;4884457;29;20064;-74
2023/10/15 08:05:15;;;;;;;79.72;76.15;;;8.50;96.70;;;;;;4861820;29;20550;-74
2023/10/15 08:07:44;;;;;;;78.10;74.40;;;8.60;95.70;;;;;;4887497;29;20075;-74
2023/10/15 08:10:10;;;;;;;40.30;38.22;;;8.40;95.10;;;;;;4889004;29;20089;-74
2023/10/15 08:12:37;;;;;;;72.47;69.38;;;8.10;93.30;;;;;;4881373;29;20057;-74
2023/10/15 08:15:03;;;;;;;31.83;30.38;;;7.90;94.90;;;;;;4883566;29;20076;-73
2023/10/15 08:17:31;;;;;;;44.45;42.47;;;7.80;94.70;;;;;;4877008;29;20501;-73
2023/10/15 08:19:58;;;;;;;35.97;34.13;;;7.60;94.90;;;;;;4876944;29;20045;-73
2023/10/15 08:22:25;;;;;;;47.42;45.05;;;7.50;95.10;;;;;;4887149;29;20051;-74
2023/10/15 08:24:51;;;;;;;43.45;41.38;;;7.40;95.30;;;;;;4887464;29;20374;-74
2023/10/15 08:27:17;;;;;;;36.97;34.97;;;7.30;95.50;;;;;;4890087;29;20428;-74
2023/10/15 08:29:43;;;;;;;43.23;41.23;;;7.30;95.70;;;;;;4872318;29;20152;-74
2023/10/15 08:32:16;;;;;;;34.15;32.45;;;7.30;96.00;;;;;;4896901;29;20041;-75
2023/10/15 08:34:46;;;;;;;39.80;38.00;;;7.30;96.50;;;;;;4892576;29;20040;-74
2023/10/15 08:37:13;;;;;;;33.90;32.28;;;7.40;95.60;;;;;;4882718;29;20051;-74
2023/10/15 08:39:39;;;;;;;53.72;51.05;;;7.60;95.60;;;;;;4866756;29;20106;-74
2023/10/15 08:42:16;;;;;;;36.65;34.47;;;7.80;95.30;;;;;;4886100;29;20056;-74
2023/10/15 08:44:43;;;;;;;35.35;33.60;;;7.90;94.90;;;;;;4886334;29;20052;-73
2023/10/15 08:47:10;;;;;;;36.50;34.50;;;8.20;94.80;;;;;;4885452;29;20057;-73
2023/10/15 08:49:38;;;;;;;40.85;38.67;;;8.40;93.10;;;;;;4868131;29;20274;-72
2023/10/15 08:52:06;;;;;;;55.45;52.28;;;8.50;91.90;;;;;;4866406;29;20123;-72
2023/10/15 08:54:38;;;;;;;45.22;42.45;;;8.70;92.10;;;;;;4870354;29;20148;-73
2023/10/15 08:57:09;;;;;;;50.78;48.13;;;8.70;92.40;;;;;;4886911;29;20420;-72
2023/10/15 08:59:39;;;;;;;49.78;47.30;;;8.80;92.90;;;;;;4890547;29;20400;-73
2023/10/15 09:02:05;;;;;;;53.63;51.08;;;8.70;91.20;;;;;;4888644;29;20044;-74
2023/10/15 09:04:32;;;;;;;79.47;75.65;;;8.60;90.10;;;;;;4875837;29;20037;-74
2023/10/15 09:07:02;;;;;;;42.72;40.63;;;8.50;92.20;;;;;;4901586;29;20044;-74
2023/10/15 09:09:32;;;;;;;45.30;43.10;;;8.40;92.10;;;;;;4878221;29;20388;-74
2023/10/15 09:11:59;;;;;;;38.00;36.00;;;8.30;92.90;;;;;;4890362;29;20044;-74
2023/10/15 09:14:45;;;;;;;49.80;47.22;;;8.20;91.20;;;;;;4871652;29;20041;-74
2023/10/15 09:17:15;;;;;;;40.53;38.17;;;8.30;92.20;;;;;;4876956;29;20880;-74
2023/10/15 09:19:42;;;;;;;36.45;34.45;;;8.60;92.00;;;;;;4886908;29;20045;-74
2023/10/15 09:22:15;;;;;;;35.33;33.33;;;8.80;91.70;;;;;;4892781;29;20044;-74
2023/10/15 09:24:45;;;;;;;32.88;31.17;;;8.90;89.40;;;;;;4886743;29;20398;-74
2023/10/15 09:27:11;;;;;;;40.28;37.95;;;8.90;90.30;;;;;;4888060;29;20734;-74
2023/10/15 09:29:38;;;;;;;29.58;27.63;;;8.80;88.40;;;;;;4872369;29;20072;-74
2023/10/15 09:32:05;;;;;;;38.08;36.03;;;8.80;90.40;;;;;;4884403;29;20108;-74
2023/10/15 09:34:38;;;;;;;38.03;35.60;;;8.90;90.40;;;;;;4886190;29;20062;-74
2023/10/15 09:37:06;;;;;;;34.15;31.70;;;9.10;91.90;;;;;;4876425;29;20055;-74
2023/10/15 09:39:32;;;;;;;63.10;59.58;;;9.30;92.40;;;;;;4889209;29;20531;-74
2023/10/15 09:42:09;;;;;;;69.63;66.07;;;9.60;90.80;;;;;;4885326;29;20124;-73
2023/10/15 09:44:35;;;;;;;44.53;41.78;;;9.80;89.80;;;;;;4888500;29;20294;-73
2023/10/15 09:47:02;;;;;;;117.10;111.40;;;10.10;88.70;;;;;;4884106;29;20057;-73
2023/10/15 09:49:33;;;;;;;106.65;101.18;;;10.30;86.90;;;;;;4880532;29;20354;-73
2023/10/15 09:52:05;;;;;;;49.47;46.83;;;10.40;86.00;;;;;;4896211;29;20414;-73
2023/10/15 09:54:33;;;;;;;41.97;39.72;;;10.50;86.30;;;;;;4910123;29;20036;-73
2023/10/15 09:57:01;;;;;;;50.13;47.38;;;10.40;84.20;;;;;;4875093;29;20072;-73
2023/10/15 09:59:29;;;;;;;64.57;61.25;;;10.30;84.70;;;;;;4890029;29;20437;-73
2023/10/15 10:01:58;;;;;;;42.90;40.70;;;10.00;86.10;;;;;;4889079;29;20052;-73
2023/10/15 10:04:42;;;;;;;28.02;26.67;;;9.80;84.70;;;;;;4874083;29;20204;-73
2023/10/15 10:07:31;;;;;;;31.77;29.88;;;9.60;86.20;;;;;;4887640;29;20435;-74
2023/10/15 10:10:38;;;;;;;29.75;28.10;;;9.60;87.00;;;;;;4888380;29;20045;-74
2023/10/15 10:13:24;;;;;;;51.60;49.08;;;9.70;84.40;;;;;;4891131;29;20043;-74
2023/10/15 10:15:57;;;;;;;77.10;73.20;;;10.00;87.10;;;;;;4893336;29;20040;-74
2023/10/15 10:18:24;;;;;;;87.78;83.07;;;10.30;84.90;;;;;;4876779;29;20524;-74
2023/10/15 10:20:50;;;;;;;27.73;26.02;;;10.50;81.80;;;;;;4876432;29;20040;-74
2023/10/15 10:23:17;;;;;;;70.25;66.72;;;10.70;83.10;;;;;;4893972;29;20497;-73
2023/10/15 10:25:47;;;;;;;77.30;72.10;;;10.60;83.60;;;;;;4880103;29;20044;-73
2023/10/15 10:28:20;;;;;;;30.05;28.17;;;10.50;80.40;;;;;;4885170;29;20052;-73
2023/10/15 10:30:56;;;;;;;29.20;27.38;;;10.30;82.30;;;;;;4897090;29;20056;-73
2023/10/15 10:33:41;;;;;;;40.67;38.38;;;10.20;85.00;;;;;;4892321;29;20045;-73
2023/10/15 10:36:19;;;;;;;39.00;36.97;;;10.00;84.60;;;;;;4893962;29;20128;-73
2023/10/15 10:39:10;;;;;;;29.35;27.17;;;9.90;86.00;;;;;;4894796;29;20051;-73
2023/10/15 10:41:41;;;;;;;62.27;58.60;;;9.90;85.80;;;;;;4868455;29;20052;-74
2023/10/15 10:44:08;;;;;;;92.25;87.10;;;10.10;86.10;;;;;;4865528;29;20861;-73
2023/10/15 10:46:42;;;;;;;82.72;78.85;;;10.30;83.50;;;;;;4867022;29;20616;-74
2023/10/15 10:49:17;;;;;;;161.40;152.13;;;10.50;82.00;;;;;;4892747;29;20144;-73
2023/10/15 10:52:17;;;;;;;98.88;94.00;;;10.70;81.30;;;;;;4889764;29;20360;-74
2023/10/15 10:54:46;;;;;;;36.23;34.33;;;10.90;78.70;;;;;;4875853;29;20047;-72
2023/10/15 10:57:12;;;;;;;36.60;34.60;;;11.00;80.30;;;;;;4903880;29;21859;-72
2023/10/15 10:59:40;;;;;;;86.70;82.43;;;11.00;82.00;;;;;;4872638;29;20048;-72
2023/10/15 11:02:11;;;;;;;34.97;33.25;;;10.90;80.50;;;;;;4902999;29;20044;-72
2023/10/15 11:04:39;;;;;;;43.03;40.77;;;10.70;81.50;;;;;;4889599;29;20561;-73
2023/10/15 11:07:07;;;;;;;46.80;44.57;;;10.40;81.20;;;;;;4893849;29;20305;-72
2023/10/15 11:09:37;;;;;;;32.65;30.85;;;10.40;81.30;;;;;;4882157;29;20376;-73
2023/10/15 11:12:06;;;;;;;25.87;24.53;;;10.50;83.60;;;;;;4898521;29;20083;-73
2023/10/15 11:14:33;;;;;;;26.37;25.07;;;10.50;80.10;;;;;;4868712;29;20296;-72
2023/10/15 11:16:59;;;;;;;61.47;58.53;;;10.60;81.20;;;;;;4882879;29;20284;-74
2023/10/15 11:19:28;;;;;;;30.40;28.67;;;10.70;81.00;;;;;;4893388;29;21019;-72
2023/10/15 11:21:54;;;;;;;28.40;26.90;;;10.90;81.60;;;;;;4906501;29;20053;-73
2023/10/15 11:24:24;;;;;;;35.43;33.77;;;10.90;80.40;;;;;;4889205;29;20293;-72
2023/10/15 11:26:54;;;;;;;37.20;35.07;;;11.00;79.90;;;;;;4896350;29;20307;-72
2023/10/15 11:29:24;;;;;;;55.70;52.40;;;10.90;77.20;;;;;;4900381;29;20285;-72
2023/10/15 11:31:56;;;;;;;30.57;29.17;;;10.80;78.30;;;;;;4878365;29;20352;-72
2023/10/15 11:34:24;;;;;;;34.27;32.50;;;10.70;78.40;;;;;;4870344;29;20706;-72
2023/10/15 11:36:55;;;;;;;28.27;26.80;;;10.70;80.90;;;;;;4880979;29;20285;-71
2023/10/15 11:40:04;;;;;;;32.20;30.47;;;10.80;81.00;;;;;;4882883;29;20296;-72
2023/10/15 11:42:10;;;;;;;43.47;40.83;;;10.90;79.10;;;;;;4889341;29;20292;-72
2023/10/15 11:44:37;;;;;;;44.13;41.80;;;11.00;78.50;;;;;;4891585;29;20375;-71
2023/10/15 11:47:20;;;;;;;30.40;28.83;;;11.10;79.00;;;;;;4900622;29;20052;-72
2023/10/15 11:49:46;;;;;;;36.23;34.20;;;11.40;81.40;;;;;;4881972;29;20376;-72
2023/10/15 11:52:18;;;;;;;28.67;26.77;;;11.70;78.40;;;;;;4893172;29;20388;-72
2023/10/15 11:54:51;;;;;;;95.47;90.67;;;12.00;77.60;;;;;;4877831;29;20309;-72
2023/10/15 11:57:24;;;;;;;27.23;25.53;;;11.70;72.30;;;;;;4872774;29;20292;-72
2023/10/15 11:59:51;;;;;;;23.73;21.93;;;11.10;73.10;;;;;;4887377;29;20297;-71
2023/10/15 12:02:17;;;;;;;19.03;17.63;;;10.50;76.80;;;;;;4884418;29;20642;-72
2023/10/15 12:05:08;;;;;;;29.80;27.57;;;10.20;78.20;;;;;;4896516;29;20289;-74
2023/10/15 12:07:37;;;;;;;21.50;20.17;;;10.00;81.30;;;;;;4898875;29;20311;-75
2023/10/15 12:10:14;;;;;;;15.23;13.77;;;10.10;81.50;;;;;;4873584;29;20288;-74
2023/10/15 12:12:42;;;;;;;20.83;19.63;;;10.30;81.80;;;;;;4883691;29;20296;-74
2023/10/15 12:15:10;;;;;;;10.57;9.23;;;10.40;80.60;;;;;;4881067;29;20067;-74
2023/10/15 12:17:35;;;;;;;55.20;52.23;;;10.60;83.00;;;;;;4900174;29;20389;-74
2023/10/15 12:20:06;;;;;;;37.83;35.60;;;10.80;79.50;;;;;;4902224;29;20301;-72
2023/10/15 12:22:33;;;;;;;80.83;76.57;;;11.00;80.50;;;;;;4886985;29;20053;-73
2023/10/15 12:25:02;;;;;;;77.80;73.93;;;11.20;74.60;;;;;;4884277;29;20296;-74
2023/10/15 12:27:30;;;;;;;104.33;99.00;;;11.30;74.40;;;;;;4896028;29;20855;-73
2023/10/15 12:29:57;;;;;;;36.43;34.23;;;11.40;68.20;;;;;;4904647;29;20289;-74
2023/10/15 12:32:24;;;;;;;39.67;37.27;;;11.30;71.70;;;;;;4883763;29;20291;-74
2023/10/15 12:34:50;;;;;;;137.47;130.10;;;11.30;73.00;;;;;;4886974;29;20288;-73
2023/10/15 12:37:16;;;;;;;178.30;167.37;;;11.30;72.60;;;;;;4897173;29;20626;-74
2023/10/15 12:39:44;;;;;;;134.43;126.03;;;11.40;71.60;;;;;;4899057;29;20291;-74
2023/10/15 12:42:11;;;;;;;93.07;88.43;;;11.30;68.50;;;;;;4896119;29;20283;-73
2023/10/15 12:44:40;;;;;;;171.07;159.67;;;11.20;70.70;;;;;;4882584;29;20379;-74
2023/10/15 12:47:09;;;;;;;64.67;60.90;;;11.10;70.60;;;;;;4907052;29;20336;-74
2023/10/15 12:49:36;;;;;;;42.50;40.70;;;11.00;71.70;;;;;;4894885;29;20292;-74
2023/10/15 12:52:03;;;;;;;32.33;31.03;;;11.10;74.50;;;;;;4889242;29;20284;-74